sensor_id;sensor_type;location;lat;lon;timestamp;P1;P2;P0
46591;PMS6003;32314;48.748;9.656;2023-04-09T00:00:12;11.33;11.33;7.00
46591;PMS6003;32314;48.748;9.656;2023-04-09T00:02:58;9.33;9.33;7.00
46591;PMS6003;32314;48.748;9.656;2023-04-09T00:05:44;9.33;9.33;7.00
46591;PMS6003;32314;48.748;9.656;2023-04-09T00:08:30;10.00;10.00;7.00
46591;PMS6003;32314;48.748;9.656;2023-04-09T00:11:15;7.00;7.00;6.00
46591;PMS6003;32314;48.748;9.656;2023-04-09T00:14:01;9.67;9.67;9.00
46591;PMS6003;32314;48.748;9.656;2023-04-09T00:16:47;14.33;14.33;9.00
46591;PMS6003;32314;48.748;9.656;2023-04-09T00:19:33;12.67;12.67;9.00
46591;PMS6003;32314;48.748;9.656;2023-04-09T00:22:18;9.33;9.33;7.00
46591;PMS6003;32314;48.748;9.656;2023-04-09T00:25:04;10.00;10.00;9.00
46591;PMS6003;32314;48.748;9.656;2023-04-09T00:27:51;12.00;9.67;8.33
46591;PMS6003;32314;48.748;9.656;2023-04-09T00:30:36;13.67;12.67;8.33
46591;PMS6003;32314;48.748;9.656;2023-04-09T00:33:22;9.00;9.00;7.00
46591;PMS6003;32314;48.748;9.656;2023-04-09T00:36:08;13.00;10.00;9.00
46591;PMS6003;32314;48.748;9.656;2023-04-09T00:38:54;13.67;12.00;8.33
46591;PMS6003;32314;48.748;9.656;2023-04-09T00:41:40;10.00;10.00;7.00
46591;PMS6003;32314;48.748;9.656;2023-04-09T00:44:26;9.33;6.67;3.33
46591;PMS6003;32314;48.748;9.656;2023-04-09T00:47:12;10.67;9.00;6.00
46591;PMS6003;32314;48.748;9.656;2023-04-09T00:49:57;9.00;6.00;3.00
46591;PMS6003;32314;48.748;9.656;2023-04-09T00:52:45;9.00;9.00;6.67
46591;PMS6003;32314;48.748;9.656;2023-04-09T00:55:31;10.00;7.67;4.67
46591;PMS6003;32314;48.748;9.656;2023-04-09T00:58:17;12.00;9.67;8.33
46591;PMS6003;32314;48.748;9.656;2023-04-09T01:01:03;18.67;12.67;9.67
46591;PMS6003;32314;48.748;9.656;2023-04-09T01:03:49;13.00;13.00;9.33
46591;PMS6003;32314;48.748;9.656;2023-04-09T01:06:42;14.33;12.33;8.33
46591;PMS6003;32314;48.748;9.656;2023-04-09T01:09:37;7.67;7.67;6.00
46591;PMS6003;32314;48.748;9.656;2023-04-09T01:12:35;9.00;9.00;6.00
46591;PMS6003;32314;48.748;9.656;2023-04-09T01:15:26;10.67;7.67;6.00
46591;PMS6003;32314;48.748;9.656;2023-04-09T01:21:10;7.00;7.00;6.00
46591;PMS6003;32314;48.748;9.656;2023-04-09T01:27:22;10.67;8.67;6.00
46591;PMS6003;32314;48.748;9.656;2023-04-09T01:30:15;12.33;12.33;9.67
46591;PMS6003;32314;48.748;9.656;2023-04-09T01:33:02;17.33;12.33;9.33
46591;PMS6003;32314;48.748;9.656;2023-04-09T01:35:49;15.33;10.67;6.67
46591;PMS6003;32314;48.748;9.656;2023-04-09T01:38:38;10.67;9.00;7.00
46591;PMS6003;32314;48.748;9.656;2023-04-09T01:41:25;10.00;6.33;6.00
46591;PMS6003;32314;48.748;9.656;2023-04-09T01:44:11;12.00;9.67;6.67
46591;PMS6003;32314;48.748;9.656;2023-04-09T01:46:58;6.67;6.67;4.67
46591;PMS6003;32314;48.748;9.656;2023-04-09T01:49:44;9.00;9.00;7.00
46591;PMS6003;32314;48.748;9.656;2023-04-09T01:52:30;7.33;7.33;6.00
46591;PMS6003;32314;48.748;9.656;2023-04-09T01:55:16;9.00;9.00;6.00
46591;PMS6003;32314;48.748;9.656;2023-04-09T01:58:02;12.00;9.00;5.33
46591;PMS6003;32314;48.748;9.656;2023-04-09T02:00:48;6.00;3.00;1.00
46591;PMS6003;32314;48.748;9.656;2023-04-09T02:03:46;10.00;10.00;6.00
46591;PMS6003;32314;48.748;9.656;2023-04-09T02:06:52;9.00;9.00;6.00
46591;PMS6003;32314;48.748;9.656;2023-04-09T02:09:41;13.00;9.00;6.67
46591;PMS6003;32314;48.748;9.656;2023-04-09T02:12:30;9.33;9.33;7.00
46591;PMS6003;32314;48.748;9.656;2023-04-09T02:15:18;8.33;7.67;7.00
46591;PMS6003;32314;48.748;9.656;2023-04-09T02:18:19;8.33;8.33;7.00
46591;PMS6003;32314;48.748;9.656;2023-04-09T02:21:14;11.00;9.00;6.67
46591;PMS6003;32314;48.748;9.656;2023-04-09T02:24:00;12.33;12.00;9.33
46591;PMS6003;32314;48.748;9.656;2023-04-09T02:26:46;8.33;8.33;6.67
46591;PMS6003;32314;48.748;9.656;2023-04-09T02:29:31;13.00;11.33;7.00
46591;PMS6003;32314;48.748;9.656;2023-04-09T02:32:17;10.67;9.00;6.33
46591;PMS6003;32314;48.748;9.656;2023-04-09T02:35:03;10.67;9.67;6.67
46591;PMS6003;32314;48.748;9.656;2023-04-09T02:37:49;7.00;7.00;6.00
46591;PMS6003;32314;48.748;9.656;2023-04-09T02:40:35;10.67;8.33;6.00
46591;PMS6003;32314;48.748;9.656;2023-04-09T02:43:21;13.67;11.33;7.00
46591;PMS6003;32314;48.748;9.656;2023-04-09T02:46:07;10.67;8.33;6.33
46591;PMS6003;32314;48.748;9.656;2023-04-09T02:48:54;7.67;7.67;7.00
46591;PMS6003;32314;48.748;9.656;2023-04-09T02:51:40;14.67;11.33;7.67
46591;PMS6003;32314;48.748;9.656;2023-04-09T02:54:25;15.67;9.00;8.33
46591;PMS6003;32314;48.748;9.656;2023-04-09T02:57:11;13.67;8.33;6.67
46591;PMS6003;32314;48.748;9.656;2023-04-09T02:59:57;14.00;9.67;7.00
46591;PMS6003;32314;48.748;9.656;2023-04-09T03:02:43;13.33;12.00;9.00
46591;PMS6003;32314;48.748;9.656;2023-04-09T03:05:28;21.67;21.00;13.00
46591;PMS6003;32314;48.748;9.656;2023-04-09T03:08:14;17.33;17.33;12.33
46591;PMS6003;32314;48.748;9.656;2023-04-09T03:11:01;12.00;12.00;9.00
46591;PMS6003;32314;48.748;9.656;2023-04-09T03:13:47;12.67;12.67;8.33
46591;PMS6003;32314;48.748;9.656;2023-04-09T03:16:33;14.00;11.33;8.33
46591;PMS6003;32314;48.748;9.656;2023-04-09T03:19:19;10.00;10.00;7.67
46591;PMS6003;32314;48.748;9.656;2023-04-09T03:22:04;13.00;12.00;7.00
46591;PMS6003;32314;48.748;9.656;2023-04-09T03:24:50;15.67;13.00;9.00
46591;PMS6003;32314;48.748;9.656;2023-04-09T03:27:37;12.33;10.00;7.00
46591;PMS6003;32314;48.748;9.656;2023-04-09T03:30:22;11.33;10.00;7.00
46591;PMS6003;32314;48.748;9.656;2023-04-09T03:33:08;13.00;10.00;9.00
46591;PMS6003;32314;48.748;9.656;2023-04-09T03:36:05;11.67;10.67;9.00
46591;PMS6003;32314;48.748;9.656;2023-04-09T03:39:16;15.33;10.67;10.00
46591;PMS6003;32314;48.748;9.656;2023-04-09T03:42:03;21.67;19.67;14.33
46591;PMS6003;32314;48.748;9.656;2023-04-09T03:44:59;18.00;15.00;12.00
46591;PMS6003;32314;48.748;9.656;2023-04-09T03:47:52;7.67;7.67;6.00
46591;PMS6003;32314;48.748;9.656;2023-04-09T03:50:41;16.33;12.33;9.67
46591;PMS6003;32314;48.748;9.656;2023-04-09T03:53:31;6.67;6.67;3.67
46591;PMS6003;32314;48.748;9.656;2023-04-09T03:56:22;15.33;15.00;7.67
46591;PMS6003;32314;48.748;9.656;2023-04-09T03:59:08;10.00;10.00;7.00
46591;PMS6003;32314;48.748;9.656;2023-04-09T04:01:58;11.00;11.00;9.33
46591;PMS6003;32314;48.748;9.656;2023-04-09T04:04:45;12.00;9.33;7.00
46591;PMS6003;32314;48.748;9.656;2023-04-09T04:07:31;16.67;14.33;10.00
46591;PMS6003;32314;48.748;9.656;2023-04-09T04:10:21;15.67;15.67;12.67
46591;PMS6003;32314;48.748;9.656;2023-04-09T04:13:08;12.00;12.00;9.00
46591;PMS6003;32314;48.748;9.656;2023-04-09T04:16:07;19.00;19.00;13.00
46591;PMS6003;32314;48.748;9.656;2023-04-09T04:18:54;14.33;13.67;10.67
46591;PMS6003;32314;48.748;9.656;2023-04-09T04:21:41;17.33;10.67;7.00
46591;PMS6003;32314;48.748;9.656;2023-04-09T04:24:27;19.67;19.00;12.00
46591;PMS6003;32314;48.748;9.656;2023-04-09T04:27:13;15.00;13.00;10.00
46591;PMS6003;32314;48.748;9.656;2023-04-09T04:29:59;17.33;15.67;9.00
46591;PMS6003;32314;48.748;9.656;2023-04-09T04:33:12;7.00;7.00;4.67
46591;PMS6003;32314;48.748;9.656;2023-04-09T04:36:11;7.67;7.67;7.00
46591;PMS6003;32314;48.748;9.656;2023-04-09T04:39:01;10.00;10.00;7.00
46591;PMS6003;32314;48.748;9.656;2023-04-09T04:41:58;6.00;4.00;3.00
46591;PMS6003;32314;48.748;9.656;2023-04-09T04:44:46;12.67;10.67;6.67
46591;PMS6003;32314;48.748;9.656;2023-04-09T04:47:49;14.33;12.67;9.33
46591;PMS6003;32314;48.748;9.656;2023-04-09T04:50:35;12.00;12.00;9.00
46591;PMS6003;32314;48.748;9.656;2023-04-09T04:53:25;13.67;12.00;6.67
46591;PMS6003;32314;48.748;9.656;2023-04-09T04:56:14;17.00;14.33;9.67
46591;PMS6003;32314;48.748;9.656;2023-04-09T04:59:09;15.00;12.33;9.33
46591;PMS6003;32314;48.748;9.656;2023-04-09T05:02:15;16.00;12.00;9.33
46591;PMS6003;32314;48.748;9.656;2023-04-09T05:05:22;15.33;12.67;7.00
46591;PMS6003;32314;48.748;9.656;2023-04-09T05:08:15;16.00;12.00;9.00
46591;PMS6003;32314;48.748;9.656;2023-04-09T05:11:01;17.33;17.33;12.33
46591;PMS6003;32314;48.748;9.656;2023-04-09T05:13:53;16.33;11.33;9.00
46591;PMS6003;32314;48.748;9.656;2023-04-09T05:16:41;9.00;9.00;7.00
46591;PMS6003;32314;48.748;9.656;2023-04-09T05:19:27;12.67;8.33;6.00
46591;PMS6003;32314;48.748;9.656;2023-04-09T05:22:19;12.00;9.00;7.00
46591;PMS6003;32314;48.748;9.656;2023-04-09T05:25:06;8.33;8.33;6.67
46591;PMS6003;32314;48.748;9.656;2023-04-09T05:27:56;9.00;7.67;6.67
46591;PMS6003;32314;48.748;9.656;2023-04-09T05:30:46;24.00;15.00;10.00
46591;PMS6003;32314;48.748;9.656;2023-04-09T05:33:33;12.67;10.00;6.33
46591;PMS6003;32314;48.748;9.656;2023-04-09T05:36:24;11.33;11.33;9.00
46591;PMS6003;32314;48.748;9.656;2023-04-09T05:39:11;20.33;15.67;12.00
46591;PMS6003;32314;48.748;9.656;2023-04-09T05:41:57;11.67;10.67;8.33
46591;PMS6003;32314;48.748;9.656;2023-04-09T05:44:42;18.67;10.33;8.67
46591;PMS6003;32314;48.748;9.656;2023-04-09T05:47:35;18.33;12.00;8.33
46591;PMS6003;32314;48.748;9.656;2023-04-09T05:50:30;12.33;12.33;7.00
46591;PMS6003;32314;48.748;9.656;2023-04-09T05:53:17;6.67;6.67;3.00
46591;PMS6003;32314;48.748;9.656;2023-04-09T05:56:11;16.00;11.33;9.00
46591;PMS6003;32314;48.748;9.656;2023-04-09T05:59:05;13.00;13.00;9.00
46591;PMS6003;32314;48.748;9.656;2023-04-09T06:01:52;16.00;13.67;9.00
46591;PMS6003;32314;48.748;9.656;2023-04-09T06:04:37;20.33;14.33;11.33
46591;PMS6003;32314;48.748;9.656;2023-04-09T06:07:23;16.33;15.00;9.33
46591;PMS6003;32314;48.748;9.656;2023-04-09T06:10:09;13.67;10.67;9.00
46591;PMS6003;32314;48.748;9.656;2023-04-09T06:12:55;18.67;13.00;7.67
46591;PMS6003;32314;48.748;9.656;2023-04-09T06:15:41;12.00;12.00;9.00
46591;PMS6003;32314;48.748;9.656;2023-04-09T06:18:27;12.67;12.33;7.00
46591;PMS6003;32314;48.748;9.656;2023-04-09T06:21:12;10.67;10.67;6.67
46591;PMS6003;32314;48.748;9.656;2023-04-09T06:23:58;20.33;15.33;9.00
46591;PMS6003;32314;48.748;9.656;2023-04-09T06:26:44;15.67;14.33;9.00
46591;PMS6003;32314;48.748;9.656;2023-04-09T06:29:30;12.75;12.75;9.00
46591;PMS6003;32314;48.748;9.656;2023-04-09T06:32:16;24.33;24.33;15.33
46591;PMS6003;32314;48.748;9.656;2023-04-09T06:35:02;21.50;21.50;15.25
46591;PMS6003;32314;48.748;9.656;2023-04-09T06:37:48;33.50;25.75;17.75
46591;PMS6003;32314;48.748;9.656;2023-04-09T06:40:36;23.00;21.75;14.50
46591;PMS6003;32314;48.748;9.656;2023-04-09T06:43:22;29.75;24.75;16.75
46591;PMS6003;32314;48.748;9.656;2023-04-09T06:46:09;21.50;21.50;14.00
46591;PMS6003;32314;48.748;9.656;2023-04-09T06:48:55;21.50;21.50;15.50
46591;PMS6003;32314;48.748;9.656;2023-04-09T06:51:41;23.75;23.50;15.75
46591;PMS6003;32314;48.748;9.656;2023-04-09T06:54:27;22.50;21.00;15.00
46591;PMS6003;32314;48.748;9.656;2023-04-09T06:57:13;25.75;24.25;17.00
46591;PMS6003;32314;48.748;9.656;2023-04-09T07:00:00;23.75;21.25;13.00
46591;PMS6003;32314;48.748;9.656;2023-04-09T07:02:45;24.50;24.50;15.25
46591;PMS6003;32314;48.748;9.656;2023-04-09T07:05:31;22.00;22.00;16.33
46591;PMS6003;32314;48.748;9.656;2023-04-09T07:08:17;23.00;21.25;14.25
46591;PMS6003;32314;48.748;9.656;2023-04-09T07:11:03;26.67;25.00;17.00
46591;PMS6003;32314;48.748;9.656;2023-04-09T07:13:49;23.50;21.75;16.00
46591;PMS6003;32314;48.748;9.656;2023-04-09T07:16:35;26.00;24.50;17.25
46591;PMS6003;32314;48.748;9.656;2023-04-09T07:19:21;22.25;20.75;15.25
46591;PMS6003;32314;48.748;9.656;2023-04-09T07:22:07;26.00;22.25;16.00
46591;PMS6003;32314;48.748;9.656;2023-04-09T07:24:53;24.25;23.50;17.00
46591;PMS6003;32314;48.748;9.656;2023-04-09T07:27:39;22.25;22.25;15.50
46591;PMS6003;32314;48.748;9.656;2023-04-09T07:30:25;17.00;17.00;13.00
46591;PMS6003;32314;48.748;9.656;2023-04-09T07:33:11;21.50;21.50;14.00
46591;PMS6003;32314;48.748;9.656;2023-04-09T07:36:03;22.75;22.75;14.75
46591;PMS6003;32314;48.748;9.656;2023-04-09T07:38:55;20.50;20.50;15.00
46591;PMS6003;32314;48.748;9.656;2023-04-09T07:41:43;25.75;22.75;16.50
46591;PMS6003;32314;48.748;9.656;2023-04-09T07:44:33;23.50;22.00;16.00
46591;PMS6003;32314;48.748;9.656;2023-04-09T07:47:32;21.00;20.25;13.75
46591;PMS6003;32314;48.748;9.656;2023-04-09T07:50:21;24.25;24.25;15.75
46591;PMS6003;32314;48.748;9.656;2023-04-09T07:53:07;21.00;21.00;14.75
46591;PMS6003;32314;48.748;9.656;2023-04-09T07:55:53;24.00;22.75;14.75
46591;PMS6003;32314;48.748;9.656;2023-04-09T07:58:39;26.50;22.25;16.50
46591;PMS6003;32314;48.748;9.656;2023-04-09T08:01:24;22.00;20.75;15.00
46591;PMS6003;32314;48.748;9.656;2023-04-09T08:04:11;23.50;23.25;14.75
46591;PMS6003;32314;48.748;9.656;2023-04-09T08:06:59;25.00;21.25;14.50
46591;PMS6003;32314;48.748;9.656;2023-04-09T08:09:45;22.50;21.00;16.00
46591;PMS6003;32314;48.748;9.656;2023-04-09T08:12:30;19.75;19.75;15.75
46591;PMS6003;32314;48.748;9.656;2023-04-09T08:15:16;19.75;19.75;14.75
46591;PMS6003;32314;48.748;9.656;2023-04-09T08:18:02;17.00;17.00;13.75
46591;PMS6003;32314;48.748;9.656;2023-04-09T08:20:48;23.75;23.75;16.00
46591;PMS6003;32314;48.748;9.656;2023-04-09T08:23:34;20.00;19.25;14.75
46591;PMS6003;32314;48.748;9.656;2023-04-09T08:26:20;20.00;20.00;14.75
46591;PMS6003;32314;48.748;9.656;2023-04-09T08:29:07;22.25;20.50;15.00
46591;PMS6003;32314;48.748;9.656;2023-04-09T08:31:53;20.00;19.00;14.75
46591;PMS6003;32314;48.748;9.656;2023-04-09T08:34:39;17.25;17.25;12.50
46591;PMS6003;32314;48.748;9.656;2023-04-09T08:37:25;17.75;17.75;14.00
46591;PMS6003;32314;48.748;9.656;2023-04-09T08:40:11;21.25;19.25;14.25
46591;PMS6003;32314;48.748;9.656;2023-04-09T08:42:57;28.50;27.00;18.25
46591;PMS6003;32314;48.748;9.656;2023-04-09T08:45:43;19.25;19.25;15.00
46591;PMS6003;32314;48.748;9.656;2023-04-09T08:48:29;23.25;22.00;16.25
46591;PMS6003;32314;48.748;9.656;2023-04-09T08:51:15;18.00;17.50;12.00
46591;PMS6003;32314;48.748;9.656;2023-04-09T08:54:02;29.25;22.50;17.00
46591;PMS6003;32314;48.748;9.656;2023-04-09T08:56:48;18.50;18.50;13.25
46591;PMS6003;32314;48.748;9.656;2023-04-09T08:59:33;23.25;21.75;15.00
46591;PMS6003;32314;48.748;9.656;2023-04-09T09:02:22;21.50;19.75;12.50
46591;PMS6003;32314;48.748;9.656;2023-04-09T09:05:08;21.00;19.75;14.00
46591;PMS6003;32314;48.748;9.656;2023-04-09T09:07:54;17.25;15.75;11.50
46591;PMS6003;32314;48.748;9.656;2023-04-09T09:10:43;18.00;16.50;11.75
46591;PMS6003;32314;48.748;9.656;2023-04-09T09:13:29;15.75;15.50;13.00
46591;PMS6003;32314;48.748;9.656;2023-04-09T09:16:15;17.75;17.75;13.25
46591;PMS6003;32314;48.748;9.656;2023-04-09T09:19:02;15.50;15.50;11.00
46591;PMS6003;32314;48.748;9.656;2023-04-09T09:21:54;17.00;15.00;9.25
46591;PMS6003;32314;48.748;9.656;2023-04-09T09:24:47;19.25;19.00;14.00
46591;PMS6003;32314;48.748;9.656;2023-04-09T09:27:37;19.25;18.75;14.50
46591;PMS6003;32314;48.748;9.656;2023-04-09T09:30:27;20.25;18.75;14.50
46591;PMS6003;32314;48.748;9.656;2023-04-09T09:33:13;21.00;19.75;14.00
46591;PMS6003;32314;48.748;9.656;2023-04-09T09:35:59;21.00;19.75;13.00
46591;PMS6003;32314;48.748;9.656;2023-04-09T09:38:56;21.25;19.25;14.25
46591;PMS6003;32314;48.748;9.656;2023-04-09T09:41:43;20.00;20.00;15.50
46591;PMS6003;32314;48.748;9.656;2023-04-09T09:44:30;18.00;18.00;15.00
46591;PMS6003;32314;48.748;9.656;2023-04-09T09:47:17;15.00;15.00;11.00
46591;PMS6003;32314;48.748;9.656;2023-04-09T09:50:04;18.25;18.25;13.00
46591;PMS6003;32314;48.748;9.656;2023-04-09T09:52:52;15.00;15.00;12.00
46591;PMS6003;32314;48.748;9.656;2023-04-09T09:55:48;19.50;17.50;14.25
46591;PMS6003;32314;48.748;9.656;2023-04-09T09:58:39;14.25;14.25;8.00
46591;PMS6003;32314;48.748;9.656;2023-04-09T10:01:26;16.75;16.75;13.50
46591;PMS6003;32314;48.748;9.656;2023-04-09T10:04:13;18.25;17.25;13.75
46591;PMS6003;32314;48.748;9.656;2023-04-09T10:06:59;17.75;17.50;11.50
46591;PMS6003;32314;48.748;9.656;2023-04-09T10:09:48;14.00;14.00;10.00
46591;PMS6003;32314;48.748;9.656;2023-04-09T10:12:35;19.50;15.75;12.00
46591;PMS6003;32314;48.748;9.656;2023-04-09T10:15:21;15.25;14.00;10.25
46591;PMS6003;32314;48.748;9.656;2023-04-09T10:18:07;14.00;13.25;7.25
46591;PMS6003;32314;48.748;9.656;2023-04-09T10:24:29;8.75;8.75;6.75
46591;PMS6003;32314;48.748;9.656;2023-04-09T10:27:16;10.00;9.00;6.50
46591;PMS6003;32314;48.748;9.656;2023-04-09T10:30:02;9.50;9.50;7.75
46591;PMS6003;32314;48.748;9.656;2023-04-09T10:32:49;8.50;8.50;6.50
46591;PMS6003;32314;48.748;9.656;2023-04-09T10:35:35;13.25;10.25;7.25
46591;PMS6003;32314;48.748;9.656;2023-04-09T10:38:40;12.75;11.00;9.00
46591;PMS6003;32314;48.748;9.656;2023-04-09T10:41:30;6.75;6.75;5.75
46591;PMS6003;32314;48.748;9.656;2023-04-09T10:44:21;12.00;10.25;7.50
46591;PMS6003;32314;48.748;9.656;2023-04-09T10:47:09;8.00;8.00;5.00
46591;PMS6003;32314;48.748;9.656;2023-04-09T10:49:56;11.25;9.50;7.25
46591;PMS6003;32314;48.748;9.656;2023-04-09T10:52:41;8.00;8.00;7.00
46591;PMS6003;32314;48.748;9.656;2023-04-09T10:55:33;12.75;12.75;9.50
46591;PMS6003;32314;48.748;9.656;2023-04-09T10:58:22;8.75;8.75;7.00
46591;PMS6003;32314;48.748;9.656;2023-04-09T11:01:08;14.25;14.25;9.75
46591;PMS6003;32314;48.748;9.656;2023-04-09T11:04:07;14.00;14.00;9.75
46591;PMS6003;32314;48.748;9.656;2023-04-09T11:06:54;12.50;9.50;7.75
46591;PMS6003;32314;48.748;9.656;2023-04-09T11:09:40;12.75;11.00;8.75
46591;PMS6003;32314;48.748;9.656;2023-04-09T11:12:26;8.50;8.50;7.00
46591;PMS6003;32314;48.748;9.656;2023-04-09T11:15:16;6.75;5.75;4.25
46591;PMS6003;32314;48.748;9.656;2023-04-09T11:18:02;8.75;8.75;7.50
46591;PMS6003;32314;48.748;9.656;2023-04-09T11:20:58;31.75;28.25;21.25
46591;PMS6003;32314;48.748;9.656;2023-04-09T11:23:50;10.00;10.00;8.00
46591;PMS6003;32314;48.748;9.656;2023-04-09T11:26:36;8.25;8.25;7.00
46591;PMS6003;32314;48.748;9.656;2023-04-09T11:29:22;10.75;10.75;7.75
46591;PMS6003;32314;48.748;9.656;2023-04-09T11:32:08;11.00;11.00;7.50
46591;PMS6003;32314;48.748;9.656;2023-04-09T11:34:54;11.75;11.75;9.00
46591;PMS6003;32314;48.748;9.656;2023-04-09T11:37:42;25.25;24.75;20.25
46591;PMS6003;32314;48.748;9.656;2023-04-09T11:40:28;13.00;11.75;8.00
46591;PMS6003;32314;48.748;9.656;2023-04-09T11:43:14;9.75;9.75;8.00
46591;PMS6003;32314;48.748;9.656;2023-04-09T11:46:01;5.25;5.00;3.00
46591;PMS6003;32314;48.748;9.656;2023-04-09T11:48:48;8.75;8.75;7.00
46591;PMS6003;32314;48.748;9.656;2023-04-09T11:51:34;7.75;7.75;6.50
46591;PMS6003;32314;48.748;9.656;2023-04-09T11:54:20;10.00;9.50;7.00
46591;PMS6003;32314;48.748;9.656;2023-04-09T11:57:05;9.75;9.75;8.75
46591;PMS6003;32314;48.748;9.656;2023-04-09T11:59:51;8.00;8.00;6.00
46591;PMS6003;32314;48.748;9.656;2023-04-09T12:02:38;8.00;8.00;7.00
46591;PMS6003;32314;48.748;9.656;2023-04-09T12:05:29;7.75;7.75;6.00
46591;PMS6003;32314;48.748;9.656;2023-04-09T12:08:21;6.50;6.50;5.75
46591;PMS6003;32314;48.748;9.656;2023-04-09T12:11:08;5.00;5.00;5.00
46591;PMS6003;32314;48.748;9.656;2023-04-09T12:14:01;8.25;8.00;5.75
46591;PMS6003;32314;48.748;9.656;2023-04-09T12:16:51;7.00;6.75;6.25
46591;PMS6003;32314;48.748;9.656;2023-04-09T12:19:37;10.50;8.75;7.00
46591;PMS6003;32314;48.748;9.656;2023-04-09T12:22:23;7.00;7.00;6.00
46591;PMS6003;32314;48.748;9.656;2023-04-09T12:25:08;8.25;8.25;6.25
46591;PMS6003;32314;48.748;9.656;2023-04-09T12:27:54;9.25;9.25;7.25
46591;PMS6003;32314;48.748;9.656;2023-04-09T12:30:41;8.00;8.00;6.25
46591;PMS6003;32314;48.748;9.656;2023-04-09T12:33:27;8.75;8.75;7.00
46591;PMS6003;32314;48.748;9.656;2023-04-09T12:36:12;9.00;9.00;7.00
46591;PMS6003;32314;48.748;9.656;2023-04-09T12:38:58;8.75;8.75;6.75
46591;PMS6003;32314;48.748;9.656;2023-04-09T12:41:44;9.25;9.00;7.50
46591;PMS6003;32314;48.748;9.656;2023-04-09T12:44:30;8.00;8.00;6.00
46591;PMS6003;32314;48.748;9.656;2023-04-09T12:47:17;9.00;9.00;6.00
46591;PMS6003;32314;48.748;9.656;2023-04-09T12:50:04;9.75;8.00;7.00
46591;PMS6003;32314;48.748;9.656;2023-04-09T12:52:51;7.75;7.75;6.00
46591;PMS6003;32314;48.748;9.656;2023-04-09T12:55:37;5.75;5.75;4.00
46591;PMS6003;32314;48.748;9.656;2023-04-09T12:58:23;10.00;8.00;6.50
46591;PMS6003;32314;48.748;9.656;2023-04-09T13:01:08;7.00;7.00;5.50
46591;PMS6003;32314;48.748;9.656;2023-04-09T13:03:54;8.00;8.00;7.00
46591;PMS6003;32314;48.748;9.656;2023-04-09T13:06:41;10.00;10.00;8.00
46591;PMS6003;32314;48.748;9.656;2023-04-09T13:09:26;11.00;11.00;7.25
46591;PMS6003;32314;48.748;9.656;2023-04-09T13:12:12;7.00;7.00;5.50
46591;PMS6003;32314;48.748;9.656;2023-04-09T13:14:59;8.00;8.00;7.00
46591;PMS6003;32314;48.748;9.656;2023-04-09T13:17:45;8.75;8.75;7.25
46591;PMS6003;32314;48.748;9.656;2023-04-09T13:20:31;8.50;8.25;6.25
46591;PMS6003;32314;48.748;9.656;2023-04-09T13:23:17;10.00;10.00;8.00
46591;PMS6003;32314;48.748;9.656;2023-04-09T13:26:03;9.75;9.00;7.00
46591;PMS6003;32314;48.748;9.656;2023-04-09T13:28:49;16.00;12.50;9.00
46591;PMS6003;32314;48.748;9.656;2023-04-09T13:31:36;10.25;9.50;7.00
46591;PMS6003;32314;48.748;9.656;2023-04-09T13:34:22;8.50;8.50;7.00
46591;PMS6003;32314;48.748;9.656;2023-04-09T13:37:08;13.50;11.25;8.75
46591;PMS6003;32314;48.748;9.656;2023-04-09T13:39:54;18.00;17.00;12.00
46591;PMS6003;32314;48.748;9.656;2023-04-09T13:42:40;12.75;11.25;9.00
46591;PMS6003;32314;48.748;9.656;2023-04-09T13:45:26;13.75;12.00;8.00
46591;PMS6003;32314;48.748;9.656;2023-04-09T13:48:12;13.75;13.00;9.50
46591;PMS6003;32314;48.748;9.656;2023-04-09T13:50:58;14.25;10.50;7.00
46591;PMS6003;32314;48.748;9.656;2023-04-09T13:53:44;15.00;10.75;8.00
46591;PMS6003;32314;48.748;9.656;2023-04-09T13:56:30;8.75;8.75;6.50
46591;PMS6003;32314;48.748;9.656;2023-04-09T13:59:16;9.25;9.25;7.50
46591;PMS6003;32314;48.748;9.656;2023-04-09T14:02:01;14.00;12.50;10.50
46591;PMS6003;32314;48.748;9.656;2023-04-09T14:04:47;11.50;11.50;9.00
46591;PMS6003;32314;48.748;9.656;2023-04-09T14:07:33;12.00;12.00;9.00
46591;PMS6003;32314;48.748;9.656;2023-04-09T14:10:19;13.00;13.00;9.75
46591;PMS6003;32314;48.748;9.656;2023-04-09T14:13:05;12.25;11.00;9.00
46591;PMS6003;32314;48.748;9.656;2023-04-09T14:15:51;10.00;10.00;8.00
46591;PMS6003;32314;48.748;9.656;2023-04-09T14:18:37;10.75;10.75;8.00
46591;PMS6003;32314;48.748;9.656;2023-04-09T14:21:24;15.00;13.75;8.50
46591;PMS6003;32314;48.748;9.656;2023-04-09T14:24:11;12.50;12.50;9.75
46591;PMS6003;32314;48.748;9.656;2023-04-09T14:26:57;13.50;11.50;9.00
46591;PMS6003;32314;48.748;9.656;2023-04-09T14:29:43;11.50;11.50;8.50
46591;PMS6003;32314;48.748;9.656;2023-04-09T14:32:29;11.25;11.25;8.00
46591;PMS6003;32314;48.748;9.656;2023-04-09T14:35:15;12.75;10.25;7.25
46591;PMS6003;32314;48.748;9.656;2023-04-09T14:38:00;11.50;11.50;9.00
46591;PMS6003;32314;48.748;9.656;2023-04-09T14:40:49;6.00;6.00;4.75
46591;PMS6003;32314;48.748;9.656;2023-04-09T14:43:35;13.25;12.50;9.25
46591;PMS6003;32314;48.748;9.656;2023-04-09T14:46:21;10.25;9.00;7.25
46591;PMS6003;32314;48.748;9.656;2023-04-09T14:49:06;9.25;9.25;6.25
46591;PMS6003;32314;48.748;9.656;2023-04-09T14:51:52;10.00;8.50;6.00
46591;PMS6003;32314;48.748;9.656;2023-04-09T14:54:38;8.00;7.50;5.75
46591;PMS6003;32314;48.748;9.656;2023-04-09T14:57:24;10.50;9.75;7.25
46591;PMS6003;32314;48.748;9.656;2023-04-09T15:00:10;10.75;9.00;8.00
46591;PMS6003;32314;48.748;9.656;2023-04-09T15:02:57;9.50;9.50;6.75
46591;PMS6003;32314;48.748;9.656;2023-04-09T15:05:42;8.00;8.00;6.50
46591;PMS6003;32314;48.748;9.656;2023-04-09T15:08:28;8.00;8.00;6.75
46591;PMS6003;32314;48.748;9.656;2023-04-09T15:11:19;5.00;5.00;3.75
46591;PMS6003;32314;48.748;9.656;2023-04-09T15:14:07;11.75;11.00;8.00
46591;PMS6003;32314;48.748;9.656;2023-04-09T15:16:53;9.75;9.75;7.50
46591;PMS6003;32314;48.748;9.656;2023-04-09T15:19:40;8.00;8.00;6.00
46591;PMS6003;32314;48.748;9.656;2023-04-09T15:22:26;10.75;9.00;7.00
46591;PMS6003;32314;48.748;9.656;2023-04-09T15:25:11;9.75;9.75;7.75
46591;PMS6003;32314;48.748;9.656;2023-04-09T15:27:57;9.00;7.00;5.00
46591;PMS6003;32314;48.748;9.656;2023-04-09T15:30:43;7.75;7.75;6.75
46591;PMS6003;32314;48.748;9.656;2023-04-09T15:33:29;9.00;9.00;7.00
46591;PMS6003;32314;48.748;9.656;2023-04-09T15:36:16;8.75;8.75;6.75
46591;PMS6003;32314;48.748;9.656;2023-04-09T15:39:02;9.75;9.75;6.25
46591;PMS6003;32314;48.748;9.656;2023-04-09T15:41:49;7.00;7.00;6.25
46591;PMS6003;32314;48.748;9.656;2023-04-09T15:44:35;9.25;9.00;7.00
46591;PMS6003;32314;48.748;9.656;2023-04-09T15:47:24;6.75;6.50;5.50
46591;PMS6003;32314;48.748;9.656;2023-04-09T15:50:10;9.00;9.00;7.00
46591;PMS6003;32314;48.748;9.656;2023-04-09T15:52:55;11.50;10.50;7.50
46591;PMS6003;32314;48.748;9.656;2023-04-09T15:55:43;8.75;8.75;8.00
46591;PMS6003;32314;48.748;9.656;2023-04-09T15:58:30;8.50;8.50;6.00
46591;PMS6003;32314;48.748;9.656;2023-04-09T16:01:16;9.00;9.00;7.00
46591;PMS6003;32314;48.748;9.656;2023-04-09T16:04:02;10.50;8.00;6.25
46591;PMS6003;32314;48.748;9.656;2023-04-09T16:06:48;9.00;8.50;5.75
46591;PMS6003;32314;48.748;9.656;2023-04-09T16:09:34;10.75;10.75;7.00